createdAt,value
2022-09-23T00:00:26.770Z,5.15
2022-09-23T00:03:12.814Z,6.97
2022-09-23T00:06:00.020Z,5.93
2022-09-23T00:08:46.276Z,7.30
2022-09-23T00:11:31.678Z,6.43
2022-09-23T00:14:17.627Z,5.95
2022-09-23T00:17:03.221Z,7.75
2022-09-23T00:19:48.819Z,6.57
2022-09-23T00:22:34.185Z,7.50
2022-09-23T00:25:19.731Z,6.97
2022-09-23T00:28:06.088Z,7.35
2022-09-23T00:30:52.036Z,7.47
2022-09-23T00:33:37.437Z,6.10
2022-09-23T00:36:23.102Z,6.88
2022-09-23T00:39:09.624Z,6.22
2022-09-23T00:41:55.304Z,6.20
2022-09-23T00:44:49.997Z,7.07
2022-09-23T00:47:48.182Z,6.35
2022-09-23T00:50:39.561Z,5.93
2022-09-23T00:53:26.726Z,8.32
2022-09-23T00:56:13.657Z,5.88
2022-09-23T00:59:00.253Z,6.90
2022-09-23T01:01:46.513Z,7.00
2022-09-23T01:04:32.457Z,9.77
2022-09-23T01:07:18.678Z,8.38
2022-09-23T01:10:05.591Z,7.47
2022-09-23T01:13:13.220Z,5.72
2022-09-23T01:16:11.509Z,7.22
2022-09-23T01:19:28.040Z,6.68
2022-09-23T01:22:33.694Z,6.88
2022-09-23T01:25:26.980Z,8.05
2022-09-23T01:28:40.246Z,7.85
2022-09-23T01:31:47.747Z,9.38
2022-09-23T01:34:47.198Z,7.22
2022-09-23T01:37:57.784Z,7.35
2022-09-23T01:40:52.266Z,6.43
2022-09-23T01:43:44.915Z,9.17
2022-09-23T01:46:39.819Z,6.47
2022-09-23T01:49:38.724Z,7.10
2022-09-23T01:52:47.261Z,8.02
2022-09-23T01:55:36.500Z,7.90
2022-09-23T01:58:30.538Z,6.90
2022-09-23T02:01:21.638Z,7.53
2022-09-23T02:04:17.513Z,11.25
2022-09-23T02:07:09.386Z,6.57
2022-09-23T02:10:10.731Z,7.15
2022-09-23T02:13:05.421Z,7.22
2022-09-23T02:15:55.975Z,7.85
2022-09-23T02:18:52.350Z,7.18
2022-09-23T02:21:44.622Z,7.68
2022-09-23T02:24:34.991Z,5.70
2022-09-23T02:27:23.479Z,6.40
2022-09-23T02:30:20.171Z,6.68
2022-09-23T02:33:12.532Z,7.35
2022-09-23T02:36:06.907Z,6.93
2022-09-23T02:39:03.777Z,6.35
2022-09-23T02:41:59.395Z,6.28
2022-09-23T02:44:44.901Z,6.95
2022-09-23T02:47:35.022Z,6.05
2022-09-23T02:50:22.281Z,7.68
2022-09-23T02:53:08.086Z,6.72
2022-09-23T02:55:53.927Z,6.70
2022-09-23T02:58:39.725Z,6.68
2022-09-23T03:01:52.500Z,5.97
2022-09-23T03:04:47.410Z,6.47
2022-09-23T03:07:51.978Z,7.20
2022-09-23T03:10:55.959Z,10.55
2022-09-23T03:14:06.738Z,6.10
2022-09-23T03:17:03.664Z,6.03
2022-09-23T03:20:04.456Z,7.25
2022-09-23T03:22:54.663Z,8.95
2022-09-23T03:25:43.165Z,7.32
2022-09-23T03:28:29.778Z,8.90
2022-09-23T03:31:16.319Z,6.45
2022-09-23T03:34:05.468Z,6.60
2022-09-23T03:37:20.031Z,9.00
2022-09-23T03:40:41.853Z,6.30
2022-09-23T03:43:26.961Z,7.45
2022-09-23T03:46:15.460Z,6.40
2022-09-23T03:49:16.917Z,6.90
2022-09-23T03:52:03.472Z,7.13
2022-09-23T03:54:51.120Z,6.57
2022-09-23T03:57:37.822Z,6.78
2022-09-23T04:00:23.531Z,6.97
2022-09-23T04:03:11.741Z,6.97
2022-09-23T04:05:57.711Z,5.88
2022-09-23T04:08:43.426Z,7.25
2022-09-23T04:11:29.135Z,7.05
2022-09-23T04:14:15.173Z,6.65
2022-09-23T04:17:00.522Z,7.00
2022-09-23T04:19:45.777Z,7.03
2022-09-23T04:22:33.459Z,5.78
2022-09-23T04:25:18.633Z,8.70
2022-09-23T04:28:04.323Z,5.50
2022-09-23T04:30:49.833Z,5.97
2022-09-23T04:33:36.216Z,6.82
2022-09-23T04:36:21.894Z,7.95
2022-09-23T04:39:07.836Z,6.65
2022-09-23T04:41:53.590Z,6.10
2022-09-23T04:44:39.763Z,6.07
2022-09-23T04:47:24.948Z,6.82
2022-09-23T04:50:10.536Z,6.97
2022-09-23T04:52:56.203Z,7.63
2022-09-23T04:55:42.493Z,9.07
2022-09-23T04:58:28.230Z,7.35
2022-09-23T05:01:19.809Z,7.38
2022-09-23T05:04:11.004Z,6.45
2022-09-23T05:07:00.828Z,7.65
2022-09-23T05:09:48.611Z,6.82
2022-09-23T05:12:34.068Z,8.65
2022-09-23T05:15:21.406Z,7.25
2022-09-23T05:18:06.904Z,7.70
2022-09-23T05:20:55.741Z,7.72
2022-09-23T05:23:41.972Z,8.23
2022-09-23T05:26:30.527Z,7.93
2022-09-23T05:29:15.968Z,8.20
2022-09-23T05:32:01.756Z,8.48
2022-09-23T05:34:47.160Z,8.30
2022-09-23T05:37:33.085Z,8.93
2022-09-23T05:40:18.732Z,9.05
2022-09-23T05:43:04.454Z,7.32
2022-09-23T05:45:50.127Z,10.68
2022-09-23T05:48:36.498Z,8.07
2022-09-23T05:51:28.783Z,6.97
2022-09-23T05:54:16.282Z,8.13
2022-09-23T05:57:04.861Z,9.55
2022-09-23T05:59:50.317Z,6.95
2022-09-23T06:02:35.948Z,6.53
2022-09-23T06:05:21.471Z,10.48
2022-09-23T06:08:08.188Z,7.10
2022-09-23T06:10:54.688Z,6.80
2022-09-23T06:13:41.399Z,8.48
2022-09-23T06:16:27.860Z,7.60
2022-09-23T06:19:13.320Z,6.50
2022-09-23T06:21:58.689Z,7.72
2022-09-23T06:24:44.422Z,6.82
2022-09-23T06:27:29.721Z,9.98
2022-09-23T06:30:17.280Z,6.40
2022-09-23T06:33:02.822Z,8.30
2022-09-23T06:35:57.685Z,9.30
2022-09-23T06:38:44.821Z,7.95
2022-09-23T06:41:30.888Z,6.47
2022-09-23T06:44:16.343Z,8.35
2022-09-23T06:47:01.907Z,9.73
2022-09-23T06:49:47.404Z,8.65
2022-09-23T06:52:33.054Z,6.57
2022-09-23T06:55:20.817Z,7.28
2022-09-23T06:58:06.559Z,7.05
2022-09-23T07:00:51.805Z,7.72
2022-09-23T07:03:38.327Z,8.55
2022-09-23T07:06:24.227Z,7.43
2022-09-23T07:09:11.019Z,8.63
2022-09-23T07:11:56.341Z,8.85
2022-09-23T07:14:41.864Z,6.25
2022-09-23T07:17:27.425Z,9.10
2022-09-23T07:20:13.207Z,5.88
2022-09-23T07:22:58.212Z,6.95
2022-09-23T07:25:44.565Z,9.13
2022-09-23T07:28:30.041Z,7.18
2022-09-23T07:31:31.367Z,7.05
2022-09-23T07:34:20.426Z,8.03
2022-09-23T07:37:06.144Z,6.70
2022-09-23T07:39:51.708Z,5.10
2022-09-23T07:42:38.556Z,7.82
2022-09-23T07:45:23.582Z,6.13
2022-09-23T07:48:09.378Z,5.22
2022-09-23T07:50:54.804Z,6.85
2022-09-23T07:53:40.476Z,8.27
2022-09-23T07:56:27.912Z,8.05
2022-09-23T07:59:16.917Z,6.00
2022-09-23T08:02:02.165Z,4.80
2022-09-23T08:04:49.840Z,5.38
2022-09-23T08:07:35.476Z,6.63
2022-09-23T08:10:21.097Z,4.78
2022-09-23T08:13:06.272Z,6.13
2022-09-23T08:15:55.327Z,6.10
2022-09-23T08:18:44.180Z,5.38
2022-09-23T08:21:29.866Z,6.32
2022-09-23T08:24:17.656Z,7.25
2022-09-23T08:27:03.099Z,6.75
2022-09-23T08:29:48.717Z,7.88
2022-09-23T08:32:34.330Z,10.88
2022-09-23T08:35:20.458Z,8.25
2022-09-23T08:38:06.636Z,8.20
2022-09-23T08:40:55.676Z,12.13
2022-09-23T08:43:50.740Z,8.35
2022-09-23T08:46:52.649Z,9.10
2022-09-23T08:49:55.508Z,8.68
2022-09-23T08:52:43.820Z,7.63
2022-09-23T08:55:43.609Z,10.57
2022-09-23T08:59:09.689Z,8.15
2022-09-23T09:02:11.283Z,7.35
2022-09-23T09:05:05.474Z,7.38
2022-09-23T09:07:51.720Z,5.55
2022-09-23T09:10:44.862Z,7.57
2022-09-23T09:13:48.619Z,8.40
2022-09-23T09:17:00.450Z,6.07
2022-09-23T09:20:23.861Z,5.20
2022-09-23T09:23:22.733Z,4.35
2022-09-23T09:26:15.433Z,4.97
2022-09-23T09:29:36.087Z,6.88
2022-09-23T09:32:33.849Z,5.13
2022-09-23T09:35:50.412Z,6.03
2022-09-23T09:38:36.963Z,4.80
2022-09-23T09:41:24.644Z,4.35
2022-09-23T09:44:31.722Z,7.63
2022-09-23T09:47:28.383Z,8.40
2022-09-23T09:50:22.158Z,11.35
2022-09-23T09:53:27.525Z,30.42
2022-09-23T09:59:13.797Z,13.38
2022-09-23T10:02:22.489Z,13.32
2022-09-23T10:05:08.090Z,8.48
2022-09-23T10:07:54.559Z,5.32
2022-09-23T10:10:59.444Z,4.95
2022-09-23T10:14:17.885Z,4.38
2022-09-23T10:17:06.203Z,3.08
2022-09-23T10:20:00.271Z,3.55
2022-09-23T10:22:46.494Z,4.15
2022-09-23T10:25:34.636Z,3.08
2022-09-23T10:28:38.306Z,3.97
2022-09-23T10:31:26.845Z,5.10
2022-09-23T10:34:27.262Z,4.72
2022-09-23T10:37:20.451Z,6.43
2022-09-23T10:40:32.894Z,4.90
2022-09-23T10:43:47.150Z,4.88
2022-09-23T10:46:45.924Z,4.20
2022-09-23T10:49:33.871Z,4.63
2022-09-23T10:52:36.049Z,4.22
2022-09-23T10:55:33.431Z,5.68
2022-09-23T10:58:36.638Z,5.40
2022-09-23T11:01:40.343Z,4.63
2022-09-23T11:04:59.672Z,4.75
2022-09-23T11:08:04.188Z,6.13
2022-09-23T11:11:14.593Z,4.38
2022-09-23T11:14:24.349Z,4.82
2022-09-23T11:17:34.645Z,4.50
2022-09-23T11:20:26.055Z,3.55
2022-09-23T11:23:37.107Z,4.57
2022-09-23T11:26:54.072Z,3.88
2022-09-23T11:29:51.438Z,3.40
2022-09-23T11:32:42.549Z,7.57
2022-09-23T11:35:39.089Z,4.63
2022-09-23T11:38:33.917Z,3.90
2022-09-23T11:41:32.911Z,4.15
2022-09-23T11:44:29.408Z,6.30
2022-09-23T11:47:22.625Z,3.75
2022-09-23T11:50:29.507Z,4.18
2022-09-23T11:53:40.948Z,4.60
2022-09-23T11:56:36.236Z,5.13
2022-09-23T11:59:39.521Z,4.00
2022-09-23T12:03:03.259Z,3.72
2022-09-23T12:06:09.084Z,5.78
2022-09-23T12:09:00.702Z,5.15
2022-09-23T12:12:16.708Z,5.75
2022-09-23T12:15:17.558Z,5.78
2022-09-23T12:18:18.446Z,5.10
2022-09-23T12:21:50.763Z,8.60
2022-09-23T12:24:57.385Z,6.90
2022-09-23T12:27:45.727Z,5.00
2022-09-23T12:30:34.537Z,5.20
2022-09-23T12:33:28.419Z,4.25
2022-09-23T12:36:13.819Z,5.32
2022-09-23T12:39:19.605Z,3.85
2022-09-23T12:42:14.499Z,4.43
2022-09-23T12:45:35.249Z,5.63
2022-09-23T12:48:20.884Z,4.45
2022-09-23T12:51:16.556Z,5.43
2022-09-23T12:54:22.417Z,4.05
2022-09-23T12:57:13.031Z,6.13
2022-09-23T13:00:12.971Z,6.28
2022-09-23T13:03:18.954Z,8.68
2022-09-23T13:06:26.943Z,5.00
2022-09-23T13:09:21.151Z,3.80
2022-09-23T13:12:13.304Z,6.70
2022-09-23T13:15:03.757Z,6.47
2022-09-23T13:17:49.256Z,6.63
2022-09-23T13:20:38.403Z,5.90
2022-09-23T13:23:30.353Z,4.13
2022-09-23T13:26:15.995Z,4.10
2022-09-23T13:29:02.520Z,4.40
2022-09-23T13:31:48.104Z,3.97
2022-09-23T13:34:36.851Z,4.82
2022-09-23T13:37:26.032Z,5.10
2022-09-23T13:40:19.083Z,5.82
2022-09-23T13:43:18.209Z,3.83
2022-09-23T13:46:08.227Z,5.65
2022-09-23T13:48:55.409Z,5.60
2022-09-23T13:51:45.077Z,3.75
2022-09-23T13:54:35.433Z,4.70
2022-09-23T13:57:30.369Z,6.75
2022-09-23T14:03:03.170Z,4.18
2022-09-23T14:05:48.939Z,4.20
2022-09-23T14:08:34.352Z,5.07
2022-09-23T14:11:29.851Z,4.68
2022-09-23T14:14:15.843Z,2.72
2022-09-23T14:17:02.657Z,3.25
2022-09-23T14:19:48.409Z,4.28
2022-09-23T14:22:33.826Z,3.03
2022-09-23T14:25:19.828Z,3.67
2022-09-23T14:28:05.433Z,5.28
2022-09-23T14:30:57.979Z,7.43
2022-09-23T14:33:43.461Z,3.45
2022-09-23T14:36:55.021Z,3.15
2022-09-23T14:39:40.478Z,2.42
2022-09-23T14:42:26.074Z,6.55
2022-09-23T14:45:20.741Z,3.30
2022-09-23T14:48:16.798Z,3.95
2022-09-23T14:51:10.961Z,3.15
2022-09-23T14:54:28.279Z,7.53
2022-09-23T14:57:23.200Z,4.20
2022-09-23T15:00:17.562Z,5.25
2022-09-23T15:03:10.694Z,2.53
2022-09-23T15:06:07.688Z,3.92
2022-09-23T15:08:55.842Z,4.05
2022-09-23T15:11:41.381Z,2.92
2022-09-23T15:14:44.868Z,4.22
2022-09-23T15:17:35.090Z,5.05
2022-09-23T15:20:24.286Z,3.60
2022-09-23T15:23:41.633Z,6.85
2022-09-23T15:26:45.315Z,5.57
2022-09-23T15:29:33.681Z,7.00
2022-09-23T15:32:19.585Z,6.50
2022-09-23T15:35:05.988Z,4.93
2022-09-23T15:37:54.017Z,5.38
2022-09-23T15:40:40.349Z,7.45
2022-09-23T15:43:27.016Z,4.57
2022-09-23T15:46:19.532Z,10.70
2022-09-23T15:49:12.775Z,6.00
2022-09-23T15:52:00.850Z,5.45
2022-09-23T15:54:46.329Z,6.90
2022-09-23T15:57:31.640Z,5.63
2022-09-23T16:00:17.444Z,8.23
2022-09-23T16:03:04.188Z,7.72
2022-09-23T16:05:50.282Z,4.13
2022-09-23T16:08:36.043Z,5.07
2022-09-23T16:11:24.424Z,4.22
2022-09-23T16:14:19.608Z,4.28
2022-09-23T16:17:05.124Z,5.95
2022-09-23T16:19:50.449Z,5.15
2022-09-23T16:22:36.406Z,4.93
2022-09-23T16:25:27.243Z,5.53
2022-09-23T16:28:12.362Z,6.43
2022-09-23T16:30:58.175Z,5.03
2022-09-23T16:33:44.643Z,4.18
2022-09-23T16:36:41.976Z,6.70
2022-09-23T16:39:27.340Z,5.18
2022-09-23T16:42:13.368Z,5.47
2022-09-23T16:44:58.980Z,5.57
2022-09-23T16:47:45.453Z,7.30
2022-09-23T16:50:31.902Z,8.75
2022-09-23T16:53:17.756Z,4.40
2022-09-23T16:56:11.090Z,4.30
2022-09-23T16:58:56.866Z,7.47
2022-09-23T17:02:01.207Z,4.88
2022-09-23T17:04:46.682Z,5.15
2022-09-23T17:07:32.235Z,4.63
2022-09-23T17:10:18.892Z,4.65
2022-09-23T17:13:04.761Z,5.32
2022-09-23T17:15:50.499Z,5.40
2022-09-23T17:18:35.766Z,8.00
2022-09-23T17:21:21.191Z,3.58
2022-09-23T17:24:07.270Z,6.35
2022-09-23T17:26:53.440Z,4.93
2022-09-23T17:29:38.828Z,4.95
2022-09-23T17:32:24.982Z,6.88
2022-09-23T17:35:11.822Z,10.73
2022-09-23T17:37:57.047Z,7.82
2022-09-23T17:40:50.129Z,5.35
2022-09-23T17:43:36.229Z,6.07
2022-09-23T17:46:21.857Z,7.22
2022-09-23T17:49:08.484Z,5.82
2022-09-23T17:51:54.020Z,6.03
2022-09-23T17:54:39.209Z,4.72
2022-09-23T17:57:24.940Z,4.90
2022-09-23T18:00:11.340Z,6.47
2022-09-23T18:02:56.681Z,5.32
2022-09-23T18:05:42.226Z,5.90
2022-09-23T18:08:30.949Z,5.32
2022-09-23T18:11:22.566Z,7.07
2022-09-23T18:14:13.956Z,6.10
2022-09-23T18:16:59.538Z,5.68
2022-09-23T18:19:49.378Z,5.20
2022-09-23T18:22:34.601Z,4.88
2022-09-23T18:25:38.034Z,7.03
2022-09-23T18:28:24.930Z,5.40
2022-09-23T18:31:11.461Z,7.65
2022-09-23T18:33:58.145Z,5.05
2022-09-23T18:36:43.883Z,12.00
2022-09-23T18:39:29.453Z,7.38
2022-09-23T18:42:15.343Z,8.43
2022-09-23T18:45:00.652Z,7.30
2022-09-23T18:48:04.889Z,7.15
2022-09-23T18:50:51.819Z,7.75
2022-09-23T18:53:37.837Z,7.65
2022-09-23T18:56:24.636Z,7.07
2022-09-23T18:59:14.639Z,8.65
2022-09-23T19:02:00.407Z,11.10
2022-09-23T19:04:45.744Z,6.90
2022-09-23T19:07:31.179Z,6.95
2022-09-23T19:10:16.996Z,12.20
2022-09-23T19:13:02.269Z,7.35
2022-09-23T19:15:48.394Z,10.88
2022-09-23T19:18:34.029Z,9.20
2022-09-23T19:21:21.978Z,10.73
2022-09-23T19:24:08.208Z,10.65
2022-09-23T19:26:54.727Z,10.40
2022-09-23T19:29:41.689Z,11.15
2022-09-23T19:32:27.358Z,13.73
2022-09-23T19:35:15.954Z,11.10
2022-09-23T19:38:01.808Z,11.55
2022-09-23T19:40:52.206Z,11.52
2022-09-23T19:43:38.051Z,11.90
2022-09-23T19:46:23.669Z,11.15
2022-09-23T19:49:09.299Z,11.75
2022-09-23T19:51:56.073Z,8.80
2022-09-23T19:54:41.623Z,10.98
2022-09-23T19:57:29.655Z,13.18
2022-09-23T20:00:15.351Z,14.48
2022-09-23T20:03:00.772Z,13.02
2022-09-23T20:05:57.298Z,15.32
2022-09-23T20:08:43.662Z,16.27
2022-09-23T20:11:29.296Z,14.88
2022-09-23T20:14:14.480Z,13.15
2022-09-23T20:17:00.369Z,11.88
2022-09-23T20:19:45.652Z,11.32
2022-09-23T20:22:34.078Z,10.32
2022-09-23T20:25:19.301Z,12.18
2022-09-23T20:28:05.771Z,15.25
2022-09-23T20:30:52.180Z,13.48
2022-09-23T20:33:38.422Z,12.05
2022-09-23T20:36:25.771Z,10.93
2022-09-23T20:39:11.408Z,12.98
2022-09-23T20:41:57.283Z,13.27
2022-09-23T20:44:44.885Z,11.57
2022-09-23T20:47:30.350Z,11.55
2022-09-23T20:50:15.870Z,12.98
2022-09-23T20:53:01.291Z,13.93
2022-09-23T20:55:54.812Z,12.57
2022-09-23T20:58:40.587Z,10.30
2022-09-23T21:01:27.632Z,10.70
2022-09-23T21:04:13.252Z,11.20
2022-09-23T21:06:59.348Z,10.43
2022-09-23T21:09:44.812Z,11.10
2022-09-23T21:12:31.636Z,9.98
2022-09-23T21:15:18.245Z,9.23
2022-09-23T21:18:03.684Z,9.27
2022-09-23T21:20:56.207Z,9.52
2022-09-23T21:23:43.335Z,12.45
2022-09-23T21:26:28.980Z,25.20
2022-09-23T21:29:14.626Z,25.25
2022-09-23T21:32:00.254Z,20.35
2022-09-23T21:34:46.022Z,21.83
2022-09-23T21:37:31.554Z,16.90
2022-09-23T21:40:35.505Z,18.73
2022-09-23T21:43:20.791Z,17.25
2022-09-23T21:46:11.741Z,18.75
2022-09-23T21:49:02.225Z,15.77
2022-09-23T21:51:47.668Z,15.73
2022-09-23T21:54:33.016Z,14.88
2022-09-23T21:57:18.676Z,16.02
2022-09-23T22:00:09.341Z,14.05
2022-09-23T22:02:54.923Z,15.32
2022-09-23T22:05:43.232Z,13.10
2022-09-23T22:08:33.170Z,15.98
2022-09-23T22:11:39.301Z,13.05
2022-09-23T22:14:26.451Z,10.50
2022-09-23T22:17:14.558Z,9.43
2022-09-23T22:19:59.873Z,11.85
2022-09-23T22:22:45.542Z,8.30
2022-09-23T22:25:33.185Z,10.18
2022-09-23T22:28:36.801Z,9.25
2022-09-23T22:31:41.162Z,9.80
2022-09-23T22:34:48.545Z,11.45
2022-09-23T22:37:35.157Z,10.73
2022-09-23T22:40:20.728Z,9.27
2022-09-23T22:43:06.142Z,8.15
2022-09-23T22:45:52.059Z,10.10
2022-09-23T22:48:37.297Z,10.70
2022-09-23T22:51:22.953Z,12.15
2022-09-23T22:54:09.139Z,9.82
2022-09-23T22:56:54.942Z,9.88
2022-09-23T22:59:40.198Z,9.80
2022-09-23T23:02:25.760Z,12.25
2022-09-23T23:05:11.597Z,11.52
2022-09-23T23:07:57.570Z,11.52
2022-09-23T23:10:43.707Z,9.88
2022-09-23T23:13:33.510Z,11.70
2022-09-23T23:16:18.853Z,10.00
2022-09-23T23:19:06.819Z,13.18
2022-09-23T23:21:52.454Z,13.43
2022-09-23T23:24:37.938Z,12.95
2022-09-23T23:27:23.555Z,13.65
2022-09-23T23:30:09.605Z,13.43
2022-09-23T23:32:55.061Z,11.60
2022-09-23T23:35:49.609Z,12.25
2022-09-23T23:38:36.886Z,14.02
2022-09-23T23:41:23.349Z,13.27
2022-09-23T23:44:09.105Z,12.23
2022-09-23T23:46:54.891Z,13.40
2022-09-23T23:49:40.778Z,10.65
2022-09-23T23:52:25.994Z,11.50
2022-09-23T23:55:11.571Z,12.65
2022-09-23T23:58:03.314Z,12.40
